createdAt,value
2019-01-29T00:01:36.698Z,6.53
2019-01-29T00:04:10.366Z,7.83
2019-01-29T00:06:47.146Z,6.77
2019-01-29T00:09:27.725Z,6.00
2019-01-29T00:12:01.421Z,10.07
2019-01-29T00:14:35.000Z,5.70
2019-01-29T00:17:16.916Z,10.33
2019-01-29T00:19:50.595Z,8.27
2019-01-29T00:22:33.319Z,6.40
2019-01-29T00:25:05.457Z,8.43
2019-01-29T00:27:39.142Z,7.13
2019-01-29T00:30:14.553Z,7.70
2019-01-29T00:32:48.324Z,11.73
2019-01-29T00:35:22.060Z,10.10
2019-01-29T00:37:55.662Z,5.53
2019-01-29T00:40:29.357Z,11.60
2019-01-29T00:43:03.032Z,11.57
2019-01-29T00:45:40.320Z,11.57
2019-01-29T00:48:14.005Z,10.33
2019-01-29T00:50:47.651Z,8.90
2019-01-29T00:53:24.360Z,8.17
2019-01-29T00:56:00.123Z,6.37
2019-01-29T00:58:33.782Z,6.13
2019-01-29T01:01:15.157Z,6.97
2019-01-29T01:03:48.846Z,6.03
2019-01-29T01:06:22.505Z,8.33
2019-01-29T01:08:56.144Z,8.90
2019-01-29T01:11:29.896Z,7.90
2019-01-29T01:14:06.758Z,6.97
2019-01-29T01:16:44.286Z,6.50
2019-01-29T01:19:17.974Z,4.50
2019-01-29T01:21:51.655Z,6.57
2019-01-29T01:24:25.255Z,9.63
2019-01-29T01:27:12.970Z,7.13
2019-01-29T01:29:59.108Z,10.07
2019-01-29T01:32:32.722Z,7.13
2019-01-29T01:35:07.251Z,6.37
2019-01-29T01:37:50.546Z,8.77
2019-01-29T01:40:24.357Z,10.30
2019-01-29T01:42:58.052Z,6.83
2019-01-29T01:45:43.751Z,7.40
2019-01-29T01:48:23.231Z,8.50
2019-01-29T01:50:58.983Z,5.77
2019-01-29T01:53:32.655Z,6.13
2019-01-29T01:56:06.243Z,8.13
2019-01-29T01:58:39.855Z,3.40
2019-01-29T02:01:13.556Z,5.57
2019-01-29T02:03:47.200Z,4.63
2019-01-29T02:06:27.260Z,6.37
2019-01-29T02:09:00.915Z,4.77
2019-01-29T02:11:34.959Z,5.73
2019-01-29T02:14:08.602Z,6.63
2019-01-29T02:16:54.491Z,8.37
2019-01-29T02:19:34.288Z,8.07
2019-01-29T02:22:13.007Z,6.47
2019-01-29T02:24:46.594Z,5.87
2019-01-29T02:27:20.217Z,8.10
2019-01-29T02:29:53.868Z,5.07
2019-01-29T02:32:27.552Z,5.17
2019-01-29T02:35:01.213Z,6.60
2019-01-29T02:37:36.053Z,5.43
2019-01-29T02:40:15.392Z,6.50
2019-01-29T02:42:49.143Z,8.07
2019-01-29T02:45:34.967Z,6.57
2019-01-29T02:48:08.721Z,3.93
2019-01-29T02:50:42.312Z,6.10
2019-01-29T02:53:18.410Z,4.57
2019-01-29T02:55:52.279Z,4.17
2019-01-29T02:58:25.931Z,4.90
2019-01-29T03:00:59.636Z,5.43
2019-01-29T03:03:33.432Z,4.03
2019-01-29T03:06:07.207Z,6.27
2019-01-29T03:08:56.251Z,3.50
2019-01-29T03:11:30.046Z,3.83
2019-01-29T03:14:03.801Z,3.43
2019-01-29T03:16:40.358Z,5.13
2019-01-29T03:19:14.310Z,5.00
2019-01-29T03:21:47.964Z,4.03
2019-01-29T03:24:21.587Z,6.70
2019-01-29T03:27:05.716Z,4.70
2019-01-29T03:29:39.465Z,6.07
2019-01-29T03:32:13.078Z,5.80
2019-01-29T03:34:47.193Z,4.60
2019-01-29T03:37:20.775Z,5.13
2019-01-29T03:39:54.514Z,5.07
2019-01-29T03:42:40.927Z,4.17
2019-01-29T03:45:16.826Z,4.57
2019-01-29T03:47:50.865Z,3.37
2019-01-29T03:50:30.614Z,5.03
2019-01-29T03:53:06.319Z,6.40
2019-01-29T03:55:40.267Z,5.50
2019-01-29T03:58:17.239Z,4.10
2019-01-29T04:00:50.961Z,4.13
2019-01-29T04:03:24.569Z,4.13
2019-01-29T04:06:00.971Z,6.43
2019-01-29T04:08:43.634Z,4.13
2019-01-29T04:11:17.287Z,3.63
2019-01-29T04:13:51.009Z,3.27
2019-01-29T04:16:24.670Z,4.17
2019-01-29T04:18:58.437Z,5.07
2019-01-29T04:21:32.454Z,4.73
2019-01-29T04:24:06.140Z,3.40
2019-01-29T04:26:46.382Z,4.30
2019-01-29T04:29:20.018Z,4.50
2019-01-29T04:31:53.645Z,3.93
2019-01-29T04:34:27.342Z,5.30
2019-01-29T04:37:00.909Z,6.80
2019-01-29T04:39:34.604Z,8.10
2019-01-29T04:42:08.253Z,8.33
2019-01-29T04:45:10.349Z,9.00
2019-01-29T04:47:43.642Z,8.67
2019-01-29T04:50:23.469Z,10.03
2019-01-29T04:52:57.188Z,9.00
2019-01-29T04:55:43.906Z,8.03
2019-01-29T04:58:17.616Z,11.47
2019-01-29T05:00:51.334Z,8.33
2019-01-29T05:03:24.899Z,9.03
2019-01-29T05:06:08.007Z,12.90
2019-01-29T05:08:41.695Z,10.17
2019-01-29T05:11:15.679Z,9.00
2019-01-29T05:13:49.362Z,8.30
2019-01-29T05:16:23.084Z,9.03
2019-01-29T05:18:56.781Z,11.07
2019-01-29T05:21:30.441Z,8.67
2019-01-29T05:24:15.024Z,10.63
2019-01-29T05:26:54.561Z,8.93
2019-01-29T05:29:31.480Z,7.40
2019-01-29T05:32:05.322Z,8.10
2019-01-29T05:34:39.020Z,11.83
2019-01-29T05:37:12.678Z,8.47
2019-01-29T05:39:46.375Z,9.77
2019-01-29T05:42:23.066Z,8.43
2019-01-29T05:44:56.688Z,7.00
2019-01-29T05:47:31.114Z,11.27
2019-01-29T05:50:11.148Z,8.67
2019-01-29T05:52:44.883Z,8.43
2019-01-29T05:55:18.955Z,7.07
2019-01-29T05:58:01.916Z,8.63
2019-01-29T06:00:37.311Z,9.10
2019-01-29T06:03:10.970Z,10.57
2019-01-29T06:05:44.745Z,8.47
2019-01-29T06:08:18.344Z,12.77
2019-01-29T06:10:52.018Z,8.77
2019-01-29T06:13:25.713Z,11.37
2019-01-29T06:15:59.424Z,10.53
2019-01-29T06:18:33.170Z,9.53
2019-01-29T06:21:06.924Z,8.57
2019-01-29T06:23:40.561Z,7.17
2019-01-29T06:26:14.238Z,5.13
2019-01-29T06:28:47.822Z,9.90
2019-01-29T06:31:36.622Z,8.73
2019-01-29T06:34:22.872Z,6.80
2019-01-29T06:36:56.921Z,6.50
2019-01-29T06:39:42.566Z,10.77
2019-01-29T06:42:16.337Z,8.33
2019-01-29T06:44:50.005Z,8.83
2019-01-29T06:47:29.859Z,13.60
2019-01-29T06:50:04.591Z,7.90
2019-01-29T06:52:38.591Z,9.53
2019-01-29T06:55:22.805Z,9.03
2019-01-29T06:57:56.568Z,10.00
2019-01-29T07:00:33.385Z,9.67
2019-01-29T07:03:07.145Z,7.63
2019-01-29T07:05:40.825Z,10.30
2019-01-29T07:08:30.746Z,10.07
2019-01-29T07:11:04.505Z,9.97
2019-01-29T07:13:41.849Z,13.10
2019-01-29T07:16:32.170Z,10.77
2019-01-29T07:19:07.433Z,12.73
2019-01-29T07:21:44.263Z,11.30
2019-01-29T07:24:17.990Z,11.90
2019-01-29T07:26:51.778Z,13.60
2019-01-29T07:29:51.692Z,12.07
2019-01-29T07:32:25.392Z,16.13
2019-01-29T07:34:58.979Z,16.93
2019-01-29T07:37:32.691Z,14.93
2019-01-29T07:40:08.888Z,14.00
2019-01-29T07:42:42.479Z,11.73
2019-01-29T07:45:16.359Z,11.97
2019-01-29T07:47:50.091Z,12.83
2019-01-29T07:50:23.923Z,11.60
2019-01-29T07:53:07.758Z,12.70
2019-01-29T07:55:41.438Z,7.37
2019-01-29T07:58:15.095Z,10.47
2019-01-29T08:00:48.844Z,9.97
2019-01-29T08:03:22.493Z,7.93
2019-01-29T08:05:56.271Z,12.20
2019-01-29T08:08:29.855Z,7.20
2019-01-29T08:11:03.540Z,8.90
2019-01-29T08:13:37.122Z,6.63
2019-01-29T08:16:10.871Z,6.47
2019-01-29T08:18:44.619Z,9.63
2019-01-29T08:21:33.636Z,6.50
2019-01-29T08:24:07.297Z,8.40
2019-01-29T08:26:40.928Z,6.97
2019-01-29T08:29:14.662Z,5.40
2019-01-29T08:31:48.365Z,6.23
2019-01-29T08:34:22.092Z,9.23
2019-01-29T08:36:56.801Z,6.83
2019-01-29T08:39:30.495Z,9.90
2019-01-29T08:42:04.506Z,9.20
2019-01-29T08:44:38.524Z,8.13
2019-01-29T08:47:18.276Z,6.80
2019-01-29T08:49:51.931Z,9.00
2019-01-29T08:52:25.935Z,10.03
2019-01-29T08:55:11.444Z,11.47
2019-01-29T08:57:49.221Z,11.07
2019-01-29T09:00:23.501Z,10.43
2019-01-29T09:03:01.073Z,11.30
2019-01-29T09:05:35.181Z,12.43
2019-01-29T09:08:09.290Z,11.83
2019-01-29T09:10:42.867Z,11.77
2019-01-29T09:13:16.495Z,7.80
2019-01-29T09:15:56.935Z,10.90
2019-01-29T09:18:30.620Z,9.50
2019-01-29T09:21:11.327Z,9.70
2019-01-29T09:23:49.679Z,12.07
2019-01-29T09:26:26.604Z,9.33
2019-01-29T09:29:00.161Z,15.90
2019-01-29T09:31:33.866Z,9.80
2019-01-29T09:34:07.547Z,7.67
2019-01-29T09:36:41.152Z,7.47
2019-01-29T09:39:16.772Z,6.80
2019-01-29T09:41:50.622Z,8.50
2019-01-29T09:44:24.301Z,3.97
2019-01-29T09:47:01.299Z,4.60
2019-01-29T09:49:38.067Z,6.73
2019-01-29T09:52:18.238Z,4.97
2019-01-29T09:54:51.866Z,6.47
2019-01-29T09:57:35.375Z,9.60
2019-01-29T10:00:16.274Z,5.50
2019-01-29T10:02:49.965Z,8.03
2019-01-29T10:05:24.653Z,4.80
2019-01-29T10:07:58.408Z,7.83
2019-01-29T10:10:40.190Z,8.77
2019-01-29T10:13:15.886Z,4.90
2019-01-29T10:15:49.627Z,7.90
2019-01-29T10:18:23.279Z,5.23
2019-01-29T10:20:57.396Z,7.87
2019-01-29T10:23:31.040Z,6.33
2019-01-29T10:26:15.697Z,7.63
2019-01-29T10:28:49.305Z,5.80
2019-01-29T10:31:24.322Z,7.60
2019-01-29T10:33:58.112Z,8.00
2019-01-29T10:36:36.892Z,3.80
2019-01-29T10:39:10.842Z,4.93
2019-01-29T10:41:45.005Z,5.22
2019-01-29T10:44:18.632Z,4.85
2019-01-29T10:46:52.866Z,4.67
2019-01-29T10:49:26.572Z,9.33
2019-01-29T10:52:00.805Z,7.20
2019-01-29T10:54:35.113Z,7.47
2019-01-29T10:57:19.673Z,4.10
2019-01-29T10:59:53.924Z,3.83
2019-01-29T11:02:31.796Z,6.42
2019-01-29T11:05:08.730Z,9.63
2019-01-29T11:07:55.046Z,7.15
2019-01-29T11:10:29.379Z,5.28
2019-01-29T11:13:03.764Z,7.95
2019-01-29T11:15:40.303Z,5.15
2019-01-29T11:18:15.114Z,6.55
2019-01-29T11:20:49.323Z,4.30
2019-01-29T11:23:23.652Z,4.47
2019-01-29T11:25:58.189Z,6.92
2019-01-29T11:28:32.409Z,4.83
2019-01-29T11:31:07.751Z,5.75
2019-01-29T11:33:41.924Z,6.28
2019-01-29T11:36:16.218Z,5.75
2019-01-29T11:38:50.440Z,8.43
2019-01-29T11:41:33.771Z,5.65
2019-01-29T11:44:08.070Z,7.80
2019-01-29T11:46:45.282Z,5.65
2019-01-29T11:49:19.498Z,6.53
2019-01-29T11:52:08.320Z,7.30
2019-01-29T11:54:41.930Z,6.57
2019-01-29T11:57:15.534Z,6.90
2019-01-29T11:59:49.199Z,8.83
2019-01-29T12:02:28.264Z,6.57
2019-01-29T12:04:58.523Z,5.60
2019-01-29T12:07:32.261Z,6.93
2019-01-29T12:10:11.391Z,5.92
2019-01-29T12:12:52.709Z,5.20
2019-01-29T12:15:32.999Z,3.92
2019-01-29T12:18:07.352Z,4.40
2019-01-29T12:20:46.294Z,5.83
2019-01-29T12:23:20.441Z,5.47
2019-01-29T12:25:54.258Z,5.97
2019-01-29T12:28:28.028Z,4.47
2019-01-29T12:31:01.808Z,4.73
2019-01-29T12:33:41.611Z,7.87
2019-01-29T12:36:15.326Z,4.60
2019-01-29T12:38:49.223Z,5.73
2019-01-29T12:41:35.427Z,3.53
2019-01-29T12:44:09.158Z,4.33
2019-01-29T12:46:42.854Z,6.87
2019-01-29T12:49:22.866Z,9.87
2019-01-29T12:51:57.743Z,5.90
2019-01-29T12:54:36.156Z,4.30
2019-01-29T12:57:09.928Z,5.20
2019-01-29T12:59:47.011Z,10.37
2019-01-29T13:02:23.797Z,6.30
2019-01-29T13:04:58.776Z,10.53
2019-01-29T13:07:32.418Z,5.83
2019-01-29T13:10:24.250Z,7.03
2019-01-29T13:12:58.102Z,10.03
2019-01-29T13:15:33.838Z,7.17
2019-01-29T13:18:19.570Z,6.27
2019-01-29T13:20:53.248Z,7.40
2019-01-29T13:23:32.622Z,8.23
2019-01-29T13:26:18.246Z,5.60
2019-01-29T13:28:51.834Z,7.73
2019-01-29T13:31:28.982Z,5.33
2019-01-29T13:34:14.787Z,3.67
2019-01-29T13:36:54.362Z,5.17
2019-01-29T13:39:27.984Z,4.93
2019-01-29T13:42:01.605Z,7.10
2019-01-29T13:44:44.922Z,8.80
2019-01-29T13:47:18.612Z,10.63
2019-01-29T13:49:52.330Z,8.47
2019-01-29T13:52:28.998Z,6.23
2019-01-29T13:55:02.638Z,10.83
2019-01-29T13:57:36.386Z,5.47
2019-01-29T14:00:18.966Z,4.20
2019-01-29T14:02:52.693Z,4.73
2019-01-29T14:05:26.548Z,5.53
2019-01-29T14:08:15.906Z,6.33
2019-01-29T14:10:49.714Z,3.00
2019-01-29T14:13:23.378Z,9.00
2019-01-29T14:15:57.133Z,11.07
2019-01-29T14:18:30.886Z,7.83
2019-01-29T14:21:04.928Z,8.23
2019-01-29T14:23:41.594Z,10.77
2019-01-29T14:26:15.250Z,3.70
2019-01-29T14:28:49.010Z,5.67
2019-01-29T14:31:28.966Z,7.90
2019-01-29T14:34:02.704Z,5.53
2019-01-29T14:36:48.706Z,5.83
2019-01-29T14:39:25.414Z,5.07
2019-01-29T14:41:59.078Z,5.40
2019-01-29T14:44:44.913Z,4.43
2019-01-29T14:47:18.595Z,4.70
2019-01-29T14:49:52.346Z,10.07
2019-01-29T14:52:29.147Z,5.57
2019-01-29T14:55:03.310Z,7.57
2019-01-29T14:57:36.993Z,6.63
2019-01-29T15:00:45.793Z,7.67
2019-01-29T15:03:19.541Z,4.30
2019-01-29T15:05:53.282Z,7.10
2019-01-29T15:08:34.346Z,6.17
2019-01-29T15:11:07.985Z,7.10
2019-01-29T15:13:41.754Z,4.80
2019-01-29T15:16:41.189Z,11.83
2019-01-29T15:19:14.953Z,7.67
2019-01-29T15:21:49.909Z,11.40
2019-01-29T15:24:23.608Z,12.23
2019-01-29T15:27:05.098Z,14.80
2019-01-29T15:29:38.878Z,8.73
2019-01-29T15:32:12.587Z,9.80
2019-01-29T15:34:58.333Z,15.00
2019-01-29T15:37:44.282Z,10.23
2019-01-29T15:40:22.165Z,11.13
2019-01-29T15:42:56.189Z,11.30
2019-01-29T15:45:30.242Z,12.47
2019-01-29T15:48:16.273Z,13.77
2019-01-29T15:50:49.906Z,16.30
2019-01-29T15:53:23.664Z,15.13
2019-01-29T15:56:09.365Z,11.90
2019-01-29T15:58:43.021Z,11.67
2019-01-29T16:01:22.911Z,15.53
2019-01-29T16:04:03.848Z,15.97
2019-01-29T16:06:37.472Z,16.70
2019-01-29T16:09:11.205Z,13.60
2019-01-29T16:11:48.637Z,14.10
2019-01-29T16:14:22.282Z,16.53
2019-01-29T16:16:55.641Z,14.03
2019-01-29T16:19:29.372Z,16.23
2019-01-29T16:22:03.076Z,15.80
2019-01-29T16:24:36.664Z,19.53
2019-01-29T16:27:23.090Z,17.33
2019-01-29T16:30:16.260Z,14.57
2019-01-29T16:32:50.013Z,18.80
2019-01-29T16:35:26.734Z,22.93
2019-01-29T16:38:00.604Z,17.93
2019-01-29T16:40:37.304Z,27.57
2019-01-29T16:43:10.987Z,22.27
2019-01-29T16:45:44.736Z,18.33
2019-01-29T16:48:18.694Z,18.00
2019-01-29T16:50:59.494Z,20.63
2019-01-29T16:53:35.171Z,21.13
2019-01-29T16:56:08.886Z,19.40
2019-01-29T16:58:48.872Z,16.83
2019-01-29T17:01:25.788Z,18.53
2019-01-29T17:03:59.828Z,23.23
2019-01-29T17:06:33.532Z,21.37
2019-01-29T17:09:08.697Z,20.83
2019-01-29T17:11:42.495Z,17.03
2019-01-29T17:14:31.159Z,21.00
2019-01-29T17:17:04.891Z,26.10
2019-01-29T17:19:38.509Z,19.73
2019-01-29T17:22:18.067Z,21.67
2019-01-29T17:24:51.766Z,19.93
2019-01-29T17:27:40.332Z,23.37
2019-01-29T17:30:27.675Z,25.53
2019-01-29T17:33:02.298Z,26.07
2019-01-29T17:35:37.371Z,25.50
2019-01-29T17:38:11.587Z,21.27
2019-01-29T17:40:48.229Z,23.03
2019-01-29T17:43:26.433Z,29.43
2019-01-29T17:46:02.120Z,27.07
2019-01-29T17:48:35.791Z,22.67
2019-01-29T17:51:12.779Z,20.63
2019-01-29T17:53:50.199Z,21.33
2019-01-29T17:56:23.960Z,24.67
2019-01-29T17:58:57.555Z,23.80
2019-01-29T18:01:31.240Z,25.07
2019-01-29T18:04:08.010Z,20.33
2019-01-29T18:06:45.133Z,18.97
2019-01-29T18:09:18.795Z,20.53
2019-01-29T18:11:52.402Z,18.17
2019-01-29T18:14:29.102Z,21.43
2019-01-29T18:17:02.858Z,22.90
2019-01-29T18:19:36.456Z,22.33
2019-01-29T18:22:10.162Z,23.73
2019-01-29T18:24:52.127Z,17.27
2019-01-29T18:27:25.742Z,23.20
2019-01-29T18:29:59.435Z,21.00
2019-01-29T18:32:33.095Z,19.87
2019-01-29T18:35:10.287Z,20.90
2019-01-29T18:37:50.767Z,16.93
2019-01-29T18:40:42.131Z,21.17
2019-01-29T18:43:15.917Z,22.43
2019-01-29T18:45:49.565Z,27.40
2019-01-29T18:48:23.259Z,20.13
2019-01-29T18:51:05.154Z,22.53
2019-01-29T18:53:40.648Z,20.50
2019-01-29T18:56:14.254Z,19.90
2019-01-29T18:58:47.874Z,22.83
2019-01-29T19:01:21.607Z,19.53
2019-01-29T19:04:07.714Z,16.53
2019-01-29T19:06:41.371Z,24.53
2019-01-29T19:09:15.142Z,22.23
2019-01-29T19:11:48.867Z,22.17
2019-01-29T19:14:22.485Z,17.00
2019-01-29T19:16:56.195Z,18.13
2019-01-29T19:19:49.295Z,16.43
2019-01-29T19:22:22.966Z,19.83
2019-01-29T19:24:56.662Z,24.03
2019-01-29T19:27:30.383Z,19.53
2019-01-29T19:30:08.076Z,19.80
2019-01-29T19:32:42.594Z,18.00
2019-01-29T19:35:18.380Z,17.27
2019-01-29T19:37:55.042Z,22.57
2019-01-29T19:40:30.605Z,21.60
2019-01-29T19:43:05.341Z,18.83
2019-01-29T19:45:39.095Z,20.37
2019-01-29T19:48:18.646Z,25.70
2019-01-29T19:50:56.116Z,25.60
2019-01-29T19:53:30.759Z,27.17
2019-01-29T19:56:04.481Z,21.37
2019-01-29T19:58:43.233Z,24.40
2019-01-29T20:01:18.906Z,21.87
2019-01-29T20:03:52.602Z,21.10
2019-01-29T20:06:31.094Z,19.30
2019-01-29T20:09:08.968Z,20.37
2019-01-29T20:11:42.805Z,22.50
2019-01-29T20:14:19.873Z,19.00
2019-01-29T20:16:56.683Z,17.80
2019-01-29T20:19:30.296Z,22.23
2019-01-29T20:22:04.132Z,22.37
2019-01-29T20:24:45.313Z,21.73
2019-01-29T20:27:19.006Z,21.57
2019-01-29T20:29:52.643Z,21.50
2019-01-29T20:32:29.308Z,20.47
2019-01-29T20:35:03.074Z,20.37
2019-01-29T20:37:36.854Z,23.40
2019-01-29T20:40:13.741Z,20.73
2019-01-29T20:42:47.391Z,28.10
2019-01-29T20:45:21.164Z,20.17
2019-01-29T20:47:54.776Z,23.37
2019-01-29T20:50:33.716Z,23.90
2019-01-29T20:53:07.528Z,23.10
2019-01-29T20:55:56.660Z,28.60
2019-01-29T20:58:30.291Z,29.37
2019-01-29T21:01:12.180Z,29.30
2019-01-29T21:03:45.878Z,22.43
2019-01-29T21:06:19.610Z,23.80
2019-01-29T21:08:58.609Z,22.53
2019-01-29T21:11:32.210Z,23.23
2019-01-29T21:14:10.569Z,27.47
2019-01-29T21:16:47.367Z,21.00
2019-01-29T21:19:20.991Z,23.33
2019-01-29T21:21:54.586Z,25.23
2019-01-29T21:24:31.280Z,33.17
2019-01-29T21:27:05.113Z,25.37
2019-01-29T21:29:46.020Z,32.90
2019-01-29T21:32:19.688Z,23.70
2019-01-29T21:34:53.315Z,27.63
2019-01-29T21:37:27.003Z,23.90
2019-01-29T21:40:12.674Z,28.17
2019-01-29T21:42:48.395Z,29.63
2019-01-29T21:45:23.607Z,28.70
2019-01-29T21:47:59.388Z,30.77
2019-01-29T21:50:35.383Z,28.63
2019-01-29T21:53:12.191Z,26.90
2019-01-29T21:55:45.759Z,27.13
2019-01-29T21:58:19.462Z,33.90
2019-01-29T22:00:53.128Z,27.97
2019-01-29T22:03:37.065Z,29.87
2019-01-29T22:06:10.810Z,28.50
2019-01-29T22:08:44.438Z,35.60
2019-01-29T22:11:18.179Z,33.10
2019-01-29T22:14:01.587Z,39.47
2019-01-29T22:16:35.179Z,32.17
2019-01-29T22:19:08.810Z,34.37
2019-01-29T22:21:42.486Z,31.27
2019-01-29T22:24:16.259Z,29.77
2019-01-29T22:26:56.471Z,25.30
2019-01-29T22:29:30.091Z,30.10
2019-01-29T22:32:06.166Z,27.83
2019-01-29T22:34:39.120Z,30.53
2019-01-29T22:37:17.199Z,31.53
2019-01-29T22:39:50.831Z,33.40
2019-01-29T22:42:24.486Z,27.97
2019-01-29T22:44:58.199Z,25.80
2019-01-29T22:47:31.868Z,29.63
2019-01-29T22:50:14.489Z,30.17
2019-01-29T22:52:48.159Z,33.67
2019-01-29T22:55:21.902Z,33.27
2019-01-29T22:58:08.238Z,31.10
2019-01-29T23:00:52.172Z,32.33
2019-01-29T23:03:31.621Z,31.47
2019-01-29T23:06:08.340Z,33.03
2019-01-29T23:08:41.999Z,32.57
2019-01-29T23:11:15.770Z,31.53
2019-01-29T23:13:49.388Z,35.73
2019-01-29T23:16:23.155Z,37.17
2019-01-29T23:18:56.911Z,39.73
2019-01-29T23:21:30.677Z,39.50
2019-01-29T23:24:04.942Z,36.67
2019-01-29T23:26:51.931Z,35.23
2019-01-29T23:29:25.685Z,30.67
2019-01-29T23:31:59.669Z,31.93
2019-01-29T23:34:33.383Z,34.33
2019-01-29T23:37:07.119Z,36.07
2019-01-29T23:39:40.822Z,42.60
2019-01-29T23:42:14.543Z,32.23
2019-01-29T23:44:48.237Z,37.83
2019-01-29T23:47:21.898Z,38.33
2019-01-29T23:49:58.874Z,33.87
2019-01-29T23:52:39.154Z,26.10
2019-01-29T23:55:24.850Z,29.17
2019-01-29T23:57:58.514Z,33.67
